Aeroporto :
LOGIN :

Iscrizione | Disclaimer

   EN    FR    IT 

 










Sommario :    VFR   VFR Marginale   IFR   IFR Intensivo   IFR Molto Intensivo
Visibilità : 
Base nubi : 
>= 8 km
>= 3000ft
5 / 8 km
1000 / 3000 ft
1500m / 5 km
500 / 1000 ft
800 / 1500m
200 / 500 ft
< 800m
< 200 ft
Simboli :   Temporali  Nebbia  Neve Forte  Precipitazioni Forti  Vento > 20 kt
SIGMETs :   Varie  Temporali  Ghiacco  Turbolenza  Onda orograficha  Ceneri Vulcaniche






- Altitudine del aeroporto : 117 ft
- Codice IATA : NWI


EGSH - Norwich

ULTIMO METAR :
  • 221120Z 24005KT 200V270 9999 FEW015 SCT037 11/08 Q1023

METARs OBSOLETI :
  • 221050Z 23005KT 200V270 9999 FEW015 BKN034 11/08 Q1024 NOSIG
  • 221020Z 23004KT 190V260 9999 BKN035 10/08 Q1024
  • 220950Z VRB03KT 9999 SCT036 10/08 Q1024 NOSIG
  • 220920Z VRB03KT 9999 SCT036 10/08 Q1024 NOSIG
  • 220850Z VRB03KT 9999 SCT036 09/08 Q1024 NOSIG

TAF TAF EGSH
Valido dal 22 a 09 ore il 22 a 18 ore UTC


220757Z 2209/2218 VRB03KT 9999 SCT040
BECMG 2209/2211 24010KT
ATIS : +44 1603 420 640



MetMap, La meteo Aeronautica in un colpo d'occhio ! - Copyright ORBIFLY Dicembre 2007 - Disclaimer

ORBIFLY MET'MAP TEAM :

Programmazione e sviluppo : Alexandra Zaïnal
Concezione e sviluppo : Baudouin d'Aumeries
Co-Programmazione e sviluppo : Marc-Olivier Méhu
Supporto tecnico e logistico : Manuel Goepfert
Aiuto per la traduzione : Arnaldo La Scala

Contatto : metmap@orbifly.com




FONTI E CREDITI :

   NOAA